Bloomington, Illinois
Current Conditions -  °F | °C
As of 11:56 AM on Wednesday 26 Nov 2014 (Local Time) from KBMI Reporting Station
Overcast Overcast  
Wind Chill: 18°   Ceiling: 700
Heat Index: 28°   Visibility: 8mi
Dew Point: 26°   Wind: 12mph
Humidity: 92%   Direction: 120°ESE
Pressure: 30.08"   Gusts: NA
Location:  40.49°N, 89°W
Report Text: KBMI 261756Z 12010KT 8SM OVC007 M02/M03 A3008 RMK AO2 58014 T10221033 11016 21061 SLP205
Loading
Personal Weather Stations






























Interactive Weather Map New forecast layout! Learn more

10-Day Weather Forecast

Advertisements
Track Severe Weather on mobile